createdAt,value
2024-01-24T00:01:35.702Z,98842.44
2024-01-24T00:04:02.305Z,98826.81
2024-01-24T00:06:29.088Z,98828.53
2024-01-24T00:08:56.043Z,98847.63
2024-01-24T00:11:22.726Z,98819.56
2024-01-24T00:13:49.377Z,98790.63
2024-01-24T00:16:16.182Z,98834.97
2024-01-24T00:18:42.833Z,98825.75
2024-01-24T00:21:09.429Z,98816.66
2024-01-24T00:23:36.070Z,98798.25
2024-01-24T00:26:02.801Z,98808.44
2024-01-24T00:28:30.699Z,98785.59
2024-01-24T00:30:57.610Z,98791.78
2024-01-24T00:33:26.155Z,98798.25
2024-01-24T00:35:52.705Z,98793.00
2024-01-24T00:38:19.274Z,98784.09
2024-01-24T00:40:45.784Z,98806.31
2024-01-24T00:43:12.510Z,98771.31
2024-01-24T00:45:39.081Z,98778.63
2024-01-24T00:48:06.364Z,98776.13
2024-01-24T00:50:33.307Z,98775.50
2024-01-24T00:53:06.546Z,98733.63
2024-01-24T00:55:33.432Z,98744.66
2024-01-24T00:57:59.965Z,98732.28
2024-01-24T01:00:26.573Z,98754.28
2024-01-24T01:02:53.229Z,98744.28
2024-01-24T01:05:19.860Z,98754.69
2024-01-24T01:07:46.720Z,98717.13
2024-01-24T01:10:13.309Z,98756.09
2024-01-24T01:12:40.034Z,98756.31
2024-01-24T01:15:07.128Z,98728.00
2024-01-24T01:17:33.713Z,98741.63
2024-01-24T01:20:00.257Z,98743.03
2024-01-24T01:22:26.985Z,98740.06
2024-01-24T01:24:53.574Z,98728.84
2024-01-24T01:27:20.208Z,98724.19
2024-01-24T01:29:46.755Z,98739.53
2024-01-24T01:32:13.428Z,98728.72
2024-01-24T01:34:40.157Z,98711.16
2024-01-24T01:37:07.015Z,98726.31
2024-01-24T01:39:33.989Z,98704.25
2024-01-24T01:42:00.598Z,98716.09
2024-01-24T01:44:27.512Z,98701.41
2024-01-24T01:46:54.112Z,98704.50
2024-01-24T01:49:21.366Z,98716.75
2024-01-24T01:51:49.089Z,98701.16
2024-01-24T01:54:16.453Z,98707.16
2024-01-24T01:56:43.320Z,98700.19
2024-01-24T01:59:10.409Z,98681.72
2024-01-24T02:01:38.352Z,98697.38
2024-01-24T02:04:05.534Z,98693.75
2024-01-24T02:06:32.831Z,98716.81
2024-01-24T02:08:59.555Z,98720.66
2024-01-24T02:11:26.114Z,98705.81
2024-01-24T02:13:58.519Z,98711.34
2024-01-24T02:16:25.092Z,98658.44
2024-01-24T02:18:51.782Z,98682.53
2024-01-24T02:21:18.522Z,98664.56
2024-01-24T02:23:45.779Z,98679.25
2024-01-24T02:26:12.540Z,98670.47
2024-01-24T02:28:39.346Z,98679.88
2024-01-24T02:31:06.354Z,98685.72
2024-01-24T02:33:32.967Z,98683.75
2024-01-24T02:35:59.717Z,98677.59
2024-01-24T02:38:26.260Z,98689.28
2024-01-24T02:40:52.835Z,98680.25
2024-01-24T02:43:19.379Z,98695.19
2024-01-24T02:45:46.152Z,98685.56
2024-01-24T02:48:12.861Z,98689.09
2024-01-24T02:50:39.495Z,98695.44
2024-01-24T02:53:06.055Z,98688.66
2024-01-24T02:55:32.933Z,98702.75
2024-01-24T02:57:59.513Z,98681.91
2024-01-24T03:00:26.163Z,98720.31
2024-01-24T03:02:52.724Z,98687.41
2024-01-24T03:05:19.282Z,98705.00
2024-01-24T03:07:45.824Z,98711.78
2024-01-24T03:10:12.890Z,98695.91
2024-01-24T03:12:39.418Z,98691.34
2024-01-24T03:15:06.850Z,98681.91
2024-01-24T03:17:33.577Z,98656.16
2024-01-24T03:20:00.283Z,98656.00
2024-01-24T03:22:26.882Z,98677.69
2024-01-24T03:24:53.741Z,98666.84
2024-01-24T03:27:20.633Z,98614.38
2024-01-24T03:29:47.399Z,98663.16
2024-01-24T03:32:14.022Z,98675.06
2024-01-24T03:34:40.642Z,98648.88
2024-01-24T03:37:07.691Z,98648.25
2024-01-24T03:39:34.264Z,98675.88
2024-01-24T03:42:01.045Z,98685.28
2024-01-24T03:44:27.654Z,98692.66
2024-01-24T03:46:54.194Z,98705.31
2024-01-24T03:49:22.899Z,98709.41
2024-01-24T03:51:49.667Z,98693.06
2024-01-24T03:54:16.559Z,98717.22
2024-01-24T03:56:43.323Z,98692.28
2024-01-24T03:59:09.861Z,98703.94
2024-01-24T04:01:36.813Z,98701.03
2024-01-24T04:04:03.710Z,98706.63
2024-01-24T04:06:30.505Z,98703.34
2024-01-24T04:08:57.102Z,98704.84
2024-01-24T04:11:23.829Z,98703.19
2024-01-24T04:13:57.646Z,98712.81
2024-01-24T04:16:24.468Z,98693.03
2024-01-24T04:18:54.073Z,98685.06
2024-01-24T04:21:20.864Z,98682.00
2024-01-24T04:23:47.535Z,98671.75
2024-01-24T04:26:14.082Z,98672.59
2024-01-24T04:28:40.645Z,98677.53
2024-01-24T04:31:07.311Z,98657.06
2024-01-24T04:33:34.231Z,98663.41
2024-01-24T04:36:01.211Z,98646.25
2024-01-24T04:38:27.807Z,98664.25
2024-01-24T04:40:54.444Z,98647.47
2024-01-24T04:43:21.055Z,98654.84
2024-01-24T04:45:47.797Z,98671.63
2024-01-24T04:48:14.637Z,98662.25
2024-01-24T04:50:41.446Z,98668.81
2024-01-24T04:53:08.117Z,98671.28
2024-01-24T04:55:34.629Z,98667.41
2024-01-24T04:58:01.290Z,98661.88
2024-01-24T05:00:28.146Z,98661.44
2024-01-24T05:02:54.770Z,98683.56
2024-01-24T05:05:21.347Z,98680.91
2024-01-24T05:07:47.985Z,98700.75
2024-01-24T05:10:15.489Z,98692.59
2024-01-24T05:12:42.086Z,98609.44
2024-01-24T05:15:09.692Z,98680.94
2024-01-24T05:17:38.898Z,98682.97
2024-01-24T05:20:07.185Z,98678.72
2024-01-24T05:22:33.940Z,98677.66
2024-01-24T05:25:00.605Z,98608.28
2024-01-24T05:27:27.441Z,98668.28
2024-01-24T05:29:54.022Z,98664.97
2024-01-24T05:32:20.565Z,98652.72
2024-01-24T05:34:47.240Z,98617.69
2024-01-24T05:37:14.683Z,98666.06
2024-01-24T05:39:43.069Z,98661.53
2024-01-24T05:42:10.047Z,98664.41
2024-01-24T05:44:36.726Z,98673.38
2024-01-24T05:47:03.347Z,98669.72
2024-01-24T05:49:30.036Z,98694.69
2024-01-24T05:51:56.735Z,98674.25
2024-01-24T05:54:23.486Z,98663.81
2024-01-24T05:56:50.146Z,98655.84
2024-01-24T05:59:16.976Z,98652.34
2024-01-24T06:01:44.524Z,98633.72
2024-01-24T06:04:11.672Z,98642.75
2024-01-24T06:06:38.435Z,98638.44
2024-01-24T06:09:05.171Z,98641.31
2024-01-24T06:11:31.771Z,98619.81
2024-01-24T06:13:58.599Z,98637.44
2024-01-24T06:16:25.110Z,98627.38
2024-01-24T06:18:51.911Z,98650.94
2024-01-24T06:21:18.497Z,98669.16
2024-01-24T06:23:45.093Z,98650.09
2024-01-24T06:26:11.594Z,98669.34
2024-01-24T06:28:38.506Z,98671.63
2024-01-24T06:31:05.372Z,98659.94
2024-01-24T06:33:32.309Z,98659.53
2024-01-24T06:35:59.053Z,98652.78
2024-01-24T06:38:25.769Z,98634.13
2024-01-24T06:40:52.322Z,98650.94
2024-01-24T06:43:20.093Z,98640.50
2024-01-24T06:45:46.757Z,98638.22
2024-01-24T06:48:13.455Z,98641.13
2024-01-24T06:50:40.235Z,98646.03
2024-01-24T06:53:12.081Z,98646.00
2024-01-24T06:55:38.612Z,98645.22
2024-01-24T06:58:07.227Z,98633.53
2024-01-24T07:00:34.609Z,98664.44
2024-01-24T07:03:01.632Z,98661.78
2024-01-24T07:05:28.588Z,98655.00
2024-01-24T07:07:55.233Z,98657.91
2024-01-24T07:10:23.036Z,98661.38
2024-01-24T07:12:49.697Z,98663.19
2024-01-24T07:15:20.052Z,98660.75
2024-01-24T07:17:47.427Z,98695.59
2024-01-24T07:20:17.480Z,98686.13
2024-01-24T07:22:44.606Z,98696.00
2024-01-24T07:25:11.287Z,98703.78
2024-01-24T07:27:37.887Z,98695.19
2024-01-24T07:30:05.542Z,98695.38
2024-01-24T07:32:32.601Z,98705.63
2024-01-24T07:35:00.506Z,98690.28
2024-01-24T07:37:27.273Z,98688.66
2024-01-24T07:39:54.998Z,98691.72
2024-01-24T07:42:21.674Z,98693.75
2024-01-24T07:44:48.941Z,98706.03
2024-01-24T07:47:20.022Z,98710.13
2024-01-24T07:49:46.935Z,98711.16
2024-01-24T07:52:19.167Z,98719.75
2024-01-24T07:54:56.910Z,98700.50
2024-01-24T07:57:23.898Z,98712.41
2024-01-24T07:59:50.563Z,98688.84
2024-01-24T08:02:17.919Z,98727.13
2024-01-24T08:04:44.769Z,98714.22
2024-01-24T08:07:11.484Z,98719.16
2024-01-24T08:09:38.196Z,98720.16
2024-01-24T08:12:04.964Z,98731.00
2024-01-24T08:14:31.981Z,98722.63
2024-01-24T08:17:06.774Z,98743.94
2024-01-24T08:19:34.015Z,98739.41
2024-01-24T08:22:01.345Z,98766.88
2024-01-24T08:24:28.180Z,98767.69
2024-01-24T08:26:54.892Z,98754.78
2024-01-24T08:29:29.510Z,98781.19
2024-01-24T08:31:59.707Z,98775.84
2024-01-24T08:34:26.631Z,98789.00
2024-01-24T08:36:53.253Z,98694.78
2024-01-24T08:39:19.934Z,98782.41
2024-01-24T08:41:46.486Z,98756.81
2024-01-24T08:44:13.191Z,98773.78
2024-01-24T08:46:39.724Z,98800.03
2024-01-24T08:49:06.369Z,98780.78
2024-01-24T08:51:33.152Z,98805.75
2024-01-24T08:54:00.486Z,98812.13
2024-01-24T08:56:27.980Z,98824.00
2024-01-24T08:58:55.376Z,98822.38
2024-01-24T09:01:22.394Z,98826.25
2024-01-24T09:03:51.075Z,98841.03
2024-01-24T09:06:20.088Z,98828.50
2024-01-24T09:08:46.751Z,98813.13
2024-01-24T09:11:14.071Z,98798.41
2024-01-24T09:13:40.625Z,98801.81
2024-01-24T09:16:07.610Z,98818.94
2024-01-24T09:18:34.898Z,98808.09
2024-01-24T09:21:02.599Z,98814.19
2024-01-24T09:23:29.410Z,98833.91
2024-01-24T09:25:56.418Z,98834.25
2024-01-24T09:28:23.309Z,98846.59
2024-01-24T09:30:50.565Z,98845.41
2024-01-24T09:33:18.416Z,98843.34
2024-01-24T09:35:48.179Z,98849.31
2024-01-24T09:38:14.939Z,98844.63
2024-01-24T09:40:42.980Z,98858.38
2024-01-24T09:43:11.145Z,98834.81
2024-01-24T09:45:40.222Z,98874.78
2024-01-24T09:48:09.505Z,98888.13
2024-01-24T09:50:36.361Z,98892.66
2024-01-24T09:53:09.423Z,98895.84
2024-01-24T09:55:36.612Z,98919.59
2024-01-24T09:58:03.410Z,98915.00
2024-01-24T10:00:30.047Z,98906.75
2024-01-24T10:02:56.960Z,98903.47
2024-01-24T10:05:26.383Z,98901.16
2024-01-24T10:07:54.876Z,98895.56
2024-01-24T10:10:21.615Z,98917.78
2024-01-24T10:12:48.325Z,98916.66
2024-01-24T10:15:14.951Z,98901.13
2024-01-24T10:17:43.333Z,98887.44
2024-01-24T10:20:12.984Z,98896.38
2024-01-24T10:22:40.701Z,98902.31
2024-01-24T10:25:10.874Z,98911.81
2024-01-24T10:27:42.392Z,98914.44
2024-01-24T10:30:13.939Z,98926.47
2024-01-24T10:32:47.182Z,98939.66
2024-01-24T10:35:15.951Z,98930.78
2024-01-24T10:37:44.013Z,98931.34
2024-01-24T10:40:15.911Z,98920.50
2024-01-24T10:42:44.485Z,98933.16
2024-01-24T10:45:11.700Z,98932.63
2024-01-24T10:47:38.651Z,98938.56
2024-01-24T10:50:11.318Z,98930.78
2024-01-24T10:52:40.885Z,98935.72
2024-01-24T10:55:12.459Z,98904.72
2024-01-24T10:57:41.451Z,98917.78
2024-01-24T11:00:12.053Z,98928.88
2024-01-24T11:02:43.786Z,98930.19
2024-01-24T11:05:33.066Z,98931.97
2024-01-24T11:08:07.049Z,98927.88
2024-01-24T11:10:42.306Z,98918.25
2024-01-24T11:13:09.293Z,98935.31
2024-01-24T11:15:36.355Z,98907.44
2024-01-24T11:18:22.815Z,98921.56
2024-01-24T11:20:54.580Z,98933.34
2024-01-24T11:23:34.393Z,98924.38
2024-01-24T11:26:01.037Z,98957.66
2024-01-24T11:28:27.714Z,98957.22
2024-01-24T11:30:54.319Z,98971.19
2024-01-24T11:33:21.347Z,98978.19
2024-01-24T11:35:49.114Z,98958.09
2024-01-24T11:40:48.891Z,98951.34
2024-01-24T11:43:31.739Z,98899.06
2024-01-24T11:46:05.490Z,98935.97
2024-01-24T11:48:34.524Z,98953.84
2024-01-24T11:51:03.816Z,98958.78
2024-01-24T11:53:32.078Z,98963.28
2024-01-24T11:56:01.201Z,98961.84
2024-01-24T11:58:28.409Z,98972.56
2024-01-24T12:01:05.617Z,98918.03
2024-01-24T12:03:33.097Z,98963.03
2024-01-24T12:06:00.758Z,98958.91
2024-01-24T12:08:28.357Z,98969.16
2024-01-24T12:10:55.348Z,98976.16
2024-01-24T12:13:25.208Z,98972.13
2024-01-24T12:15:54.403Z,98953.31
2024-01-24T12:18:21.569Z,98977.94
2024-01-24T12:20:50.807Z,98983.91
2024-01-24T12:23:19.328Z,99013.44
2024-01-24T12:25:45.958Z,98987.94
2024-01-24T12:28:13.760Z,98955.56
2024-01-24T12:30:45.617Z,98999.31
2024-01-24T12:33:15.630Z,99005.25
2024-01-24T12:35:46.443Z,99002.56
2024-01-24T12:38:13.474Z,98993.53
2024-01-24T12:40:40.053Z,99014.97
2024-01-24T12:43:06.758Z,99009.41
2024-01-24T12:45:33.645Z,99016.38
2024-01-24T12:48:00.389Z,99032.19
2024-01-24T12:50:27.492Z,99016.38
2024-01-24T12:52:54.249Z,99008.41
2024-01-24T12:55:20.817Z,99016.59
2024-01-24T12:57:47.479Z,99023.41
2024-01-24T13:00:16.808Z,99026.03
2024-01-24T13:02:43.586Z,99016.00
2024-01-24T13:05:11.240Z,99033.47
2024-01-24T13:07:38.473Z,99021.34
2024-01-24T13:10:07.300Z,99035.09
2024-01-24T13:12:35.088Z,99035.50
2024-01-24T13:15:02.740Z,99022.97
2024-01-24T13:17:29.446Z,99034.06
2024-01-24T13:19:56.599Z,99049.47
2024-01-24T13:22:23.406Z,99045.38
2024-01-24T13:24:53.751Z,99033.47
2024-01-24T13:27:22.202Z,99034.91
2024-01-24T13:29:48.891Z,99041.47
2024-01-24T13:32:16.152Z,99030.56
2024-01-24T13:34:42.914Z,99032.25
2024-01-24T13:37:10.315Z,99034.25
2024-01-24T13:39:37.599Z,99035.31
2024-01-24T13:42:05.096Z,99043.50
2024-01-24T13:44:32.045Z,99071.00
2024-01-24T13:46:58.880Z,99053.16
2024-01-24T13:49:25.845Z,99058.06
2024-01-24T13:51:52.696Z,99066.50
2024-01-24T13:54:19.935Z,99037.34
2024-01-24T13:56:48.421Z,99066.09
2024-01-24T13:59:15.138Z,99063.41
2024-01-24T14:01:45.764Z,99068.75
2024-01-24T14:04:16.399Z,99073.66
2024-01-24T14:06:45.225Z,99071.81
2024-01-24T14:09:11.910Z,99074.09
2024-01-24T14:11:41.288Z,99071.59
2024-01-24T14:14:08.400Z,99075.50
2024-01-24T14:16:35.892Z,99072.00
2024-01-24T14:19:02.575Z,99071.81
2024-01-24T14:21:30.454Z,99073.22
2024-01-24T14:23:57.698Z,99079.78
2024-01-24T14:26:28.466Z,99065.84
2024-01-24T14:28:55.256Z,99073.41
2024-01-24T14:31:21.826Z,99080.41
2024-01-24T14:33:48.514Z,99090.44
2024-01-24T14:36:15.318Z,99092.47
2024-01-24T14:38:41.857Z,99109.50
2024-01-24T14:41:08.880Z,99112.78
2024-01-24T14:43:35.550Z,99117.72
2024-01-24T14:46:02.583Z,99121.78
2024-01-24T14:48:29.523Z,99118.47
2024-01-24T14:50:56.133Z,99137.34
2024-01-24T14:53:22.995Z,99147.94
2024-01-24T14:55:49.542Z,99150.59
2024-01-24T14:58:16.152Z,99137.50
2024-01-24T15:00:42.898Z,99142.22
2024-01-24T15:03:09.679Z,99145.69
2024-01-24T15:05:36.359Z,99146.88
2024-01-24T15:08:04.735Z,99140.31
2024-01-24T15:10:31.341Z,99142.81
2024-01-24T15:12:57.934Z,99132.91
2024-01-24T15:15:24.606Z,99141.97
2024-01-24T15:17:51.780Z,99147.31
2024-01-24T15:20:19.855Z,99167.63
2024-01-24T15:22:47.384Z,99174.78
2024-01-24T15:25:14.086Z,99177.41
2024-01-24T15:27:40.862Z,99186.81
2024-01-24T15:30:08.238Z,99185.38
2024-01-24T15:32:35.106Z,99176.31
2024-01-24T15:35:02.043Z,99182.91
2024-01-24T15:37:28.809Z,99190.03
2024-01-24T15:39:55.597Z,99187.38
2024-01-24T15:42:23.192Z,99205.38
2024-01-24T15:44:50.092Z,99204.13
2024-01-24T15:47:19.597Z,99194.31
2024-01-24T15:49:46.289Z,99201.69
2024-01-24T15:52:14.850Z,99201.91
2024-01-24T15:54:43.617Z,99210.28
2024-01-24T15:57:10.390Z,99222.38
2024-01-24T15:59:37.248Z,99209.00
2024-01-24T16:02:04.562Z,99212.63
2024-01-24T16:04:34.670Z,99212.25
2024-01-24T16:07:01.670Z,99207.63
2024-01-24T16:09:29.174Z,99217.03
2024-01-24T16:11:55.965Z,99226.22
2024-01-24T16:14:27.049Z,99200.31
2024-01-24T16:16:55.671Z,99231.88
2024-01-24T16:19:23.016Z,99243.31
2024-01-24T16:21:52.533Z,99251.06
2024-01-24T16:24:19.348Z,99254.75
2024-01-24T16:26:46.539Z,99257.47
2024-01-24T16:29:13.232Z,99257.41
2024-01-24T16:31:39.803Z,99247.97
2024-01-24T16:34:06.955Z,99254.81
2024-01-24T16:36:33.820Z,99247.38
2024-01-24T16:39:00.517Z,99239.72
2024-01-24T16:41:27.330Z,99250.56
2024-01-24T16:43:53.948Z,99257.13
2024-01-24T16:46:20.657Z,99259.53
2024-01-24T16:48:47.372Z,99263.13
2024-01-24T16:51:14.074Z,99250.50
2024-01-24T16:53:41.504Z,99257.03
2024-01-24T16:56:11.162Z,99266.47
2024-01-24T16:58:37.840Z,99257.91
2024-01-24T17:01:05.156Z,99270.94
2024-01-24T17:03:32.064Z,99281.59
2024-01-24T17:05:58.929Z,99281.97
2024-01-24T17:08:25.661Z,99281.97
2024-01-24T17:10:52.927Z,99283.09
2024-01-24T17:13:21.798Z,99280.44
2024-01-24T17:15:48.483Z,99277.94
2024-01-24T17:18:15.048Z,99270.44
2024-01-24T17:20:41.664Z,99258.97
2024-01-24T17:23:08.253Z,99265.47
2024-01-24T17:25:34.821Z,99272.47
2024-01-24T17:28:01.477Z,99260.34
2024-01-24T17:30:28.154Z,99263.38
2024-01-24T17:32:54.848Z,99305.75
2024-01-24T17:35:21.403Z,99285.84
2024-01-24T17:37:48.166Z,99296.59
2024-01-24T17:40:15.015Z,99299.53
2024-01-24T17:42:41.651Z,99309.97
2024-01-24T17:45:08.874Z,99300.25
2024-01-24T17:47:36.434Z,99313.09
2024-01-24T17:50:03.661Z,99314.47
2024-01-24T17:52:32.645Z,99310.88
2024-01-24T17:55:02.311Z,99319.41
2024-01-24T17:57:29.432Z,99326.13
2024-01-24T17:59:58.495Z,99337.19
2024-01-24T18:02:25.180Z,99333.06
2024-01-24T18:04:51.959Z,99311.81
2024-01-24T18:07:20.597Z,99326.13
2024-01-24T18:09:49.335Z,99335.94
2024-01-24T18:12:17.048Z,99327.75
2024-01-24T18:14:43.567Z,99346.94
2024-01-24T18:17:10.415Z,99341.97
2024-01-24T18:19:37.054Z,99336.56
2024-01-24T18:22:03.936Z,99344.91
2024-01-24T18:24:30.687Z,99337.94
2024-01-24T18:26:57.284Z,99333.00
2024-01-24T18:29:23.863Z,99290.56
2024-01-24T18:31:51.386Z,99359.59
2024-01-24T18:34:20.161Z,99356.56
2024-01-24T18:36:46.948Z,99359.94
2024-01-24T18:39:13.674Z,99350.41
2024-01-24T18:41:40.218Z,99360.69
2024-01-24T18:44:06.787Z,99361.97
2024-01-24T18:46:33.807Z,99366.38
2024-01-24T18:49:03.406Z,99373.59
2024-01-24T18:51:31.277Z,99365.25
2024-01-24T18:53:58.052Z,99359.50
2024-01-24T18:56:25.240Z,99374.78
2024-01-24T18:58:52.153Z,99375.44
2024-01-24T19:01:20.184Z,99333.34
2024-01-24T19:03:48.166Z,99378.53
2024-01-24T19:06:14.800Z,99376.25
2024-01-24T19:08:41.756Z,99375.69
2024-01-24T19:11:09.301Z,99386.31
2024-01-24T19:13:36.438Z,99388.97
2024-01-24T19:16:03.974Z,99349.47
2024-01-24T19:18:30.775Z,99370.84
2024-01-24T19:20:57.774Z,99378.06
2024-01-24T19:23:24.849Z,99339.56
2024-01-24T19:25:51.463Z,99370.75
2024-01-24T19:28:18.648Z,99366.09
2024-01-24T19:30:45.432Z,99379.00
2024-01-24T19:33:12.746Z,99386.31
2024-01-24T19:35:41.178Z,99380.56
2024-01-24T19:38:09.556Z,99374.59
2024-01-24T19:40:36.215Z,99377.06
2024-01-24T19:43:03.114Z,99346.41
2024-01-24T19:45:31.451Z,99363.97
2024-01-24T19:47:58.113Z,99377.25
2024-01-24T19:50:24.878Z,99367.88
2024-01-24T19:52:52.298Z,99364.59
2024-01-24T19:55:19.192Z,99348.66
2024-01-24T19:57:45.810Z,99356.34
2024-01-24T20:00:13.732Z,99347.56
2024-01-24T20:02:40.582Z,99330.50
2024-01-24T20:05:08.173Z,99340.56
2024-01-24T20:07:34.902Z,99343.72
2024-01-24T20:10:01.568Z,99326.50
2024-01-24T20:12:29.421Z,99340.50
2024-01-24T20:14:56.369Z,99336.91
2024-01-24T20:17:23.617Z,99335.81
2024-01-24T20:19:51.225Z,99246.13
2024-01-24T20:22:18.528Z,99340.41
2024-01-24T20:24:45.912Z,99346.44
2024-01-24T20:27:12.870Z,99346.91
2024-01-24T20:29:39.638Z,99349.38
2024-01-24T20:32:06.961Z,99354.25
2024-01-24T20:34:33.700Z,99349.28
2024-01-24T20:37:02.559Z,99289.81
2024-01-24T20:39:29.497Z,99362.84
2024-01-24T20:41:56.073Z,99362.50
2024-01-24T20:44:22.662Z,99316.75
2024-01-24T20:46:49.249Z,99345.72
2024-01-24T20:49:16.448Z,99356.72
2024-01-24T20:51:43.152Z,99303.16
2024-01-24T20:54:09.826Z,99346.28
2024-01-24T20:56:36.596Z,99359.00
2024-01-24T20:59:03.335Z,99354.78
2024-01-24T21:01:30.330Z,99352.59
2024-01-24T21:03:57.346Z,99263.09
2024-01-24T21:06:28.231Z,99346.91
2024-01-24T21:08:55.563Z,99346.91
2024-01-24T21:11:22.697Z,99344.91
2024-01-24T21:13:49.381Z,99335.38
2024-01-24T21:16:16.090Z,99301.84
2024-01-24T21:18:44.047Z,99327.69
2024-01-24T21:21:11.716Z,99300.50
2024-01-24T21:23:38.581Z,99340.69
2024-01-24T21:26:05.203Z,99351.31
2024-01-24T21:28:31.770Z,99341.41
2024-01-24T21:30:58.959Z,99324.53
2024-01-24T21:33:25.638Z,99333.63
2024-01-24T21:35:53.851Z,99330.31
2024-01-24T21:38:20.688Z,99321.97
2024-01-24T21:40:47.354Z,99330.75
2024-01-24T21:43:14.104Z,99322.50
2024-01-24T21:45:41.882Z,99311.91
2024-01-24T21:48:08.733Z,99331.13
2024-01-24T21:50:35.316Z,99322.22
2024-01-24T21:53:01.964Z,99319.91
2024-01-24T21:55:28.614Z,99334.81
2024-01-24T21:57:55.271Z,99327.00
2024-01-24T22:00:21.968Z,99322.22
2024-01-24T22:02:48.854Z,99331.03
2024-01-24T22:05:17.847Z,99335.34
2024-01-24T22:07:47.162Z,99318.03
2024-01-24T22:10:13.910Z,99350.47
2024-01-24T22:12:41.018Z,99338.81
2024-01-24T22:15:09.376Z,99331.69
2024-01-24T22:17:36.009Z,99335.81
2024-01-24T22:20:03.330Z,99336.53
2024-01-24T22:22:30.006Z,99337.84
2024-01-24T22:24:56.664Z,99352.59
2024-01-24T22:27:23.280Z,99342.53
2024-01-24T22:29:49.854Z,99350.47
2024-01-24T22:32:16.597Z,99352.75
2024-01-24T22:34:43.259Z,99345.06
2024-01-24T22:37:10.529Z,99345.78
2024-01-24T22:39:37.220Z,99360.28
2024-01-24T22:42:03.919Z,99345.88
2024-01-24T22:44:30.495Z,99358.81
2024-01-24T22:46:57.119Z,99356.88
2024-01-24T22:49:23.832Z,99319.81
2024-01-24T22:51:50.428Z,99365.59
2024-01-24T22:54:17.284Z,99358.72
2024-01-24T22:56:43.843Z,99347.72
2024-01-24T22:59:10.468Z,99351.31
2024-01-24T23:01:37.175Z,99335.16
2024-01-24T23:04:03.942Z,99354.69
2024-01-24T23:06:31.729Z,99362.94
2024-01-24T23:08:58.344Z,99361.59
2024-01-24T23:11:24.969Z,99357.25
2024-01-24T23:13:51.843Z,99364.41
2024-01-24T23:16:18.598Z,99349.19
2024-01-24T23:18:45.198Z,99368.88
2024-01-24T23:21:11.919Z,99369.28
2024-01-24T23:23:38.726Z,99367.69
2024-01-24T23:26:05.316Z,99370.63
2024-01-24T23:28:32.032Z,99366.16
2024-01-24T23:30:58.625Z,99358.53
2024-01-24T23:33:25.893Z,99367.69
2024-01-24T23:35:52.611Z,99360.47
2024-01-24T23:38:20.295Z,99369.56
2024-01-24T23:40:46.854Z,99370.34
2024-01-24T23:43:13.540Z,99380.00
2024-01-24T23:45:40.179Z,99377.53
2024-01-24T23:48:07.453Z,99274.66
2024-01-24T23:50:34.452Z,99370.19
2024-01-24T23:53:01.571Z,99367.88
2024-01-24T23:55:28.233Z,99373.00
2024-01-24T23:57:55.060Z,99332.09
